Time;durP1;ratioP1;P1;durP2;ratioP2;P2;SDS_P1;SDS_P2;PMS_P1;PMS_P2;Temp;Humidity;BMP_temperature;BMP_pressure;BME280_temperature;BME280_humidity;BME280_pressure;Samples;Min_cycle;Max_cycle;Signal;HPM_P1;HPM_P2
2023/01/02 00:02:21;;;;;;;;;4.00;3.00;;;;;16.04;100.00;100731.88;4935602;28;46366;-81
2023/01/02 00:04:46;;;;;;;;;2.00;2.00;;;;;16.04;100.00;100726.34;4931364;28;45511;-80
2023/01/02 00:07:12;;;;;;;;;4.00;4.00;;;;;16.02;100.00;100731.28;4941658;28;45734;-81
2023/01/02 00:09:37;;;;;;;;;8.00;3.50;;;;;15.78;100.00;100711.16;4936064;28;45476;-80
2023/01/02 00:12:03;;;;;;;;;5.75;3.25;;;;;15.74;100.00;100709.94;4934033;28;46518;-81
2023/01/02 00:14:29;;;;;;;;;7.00;3.50;;;;;15.83;100.00;100736.16;4911366;28;45454;-83
2023/01/02 00:16:54;;;;;;;;;3.00;2.00;;;;;15.70;100.00;100728.94;4935839;28;45331;-82
2023/01/02 00:19:20;;;;;;;;;2.25;2.00;;;;;15.84;100.00;100761.91;4935607;28;45501;-81
2023/01/02 00:21:45;;;;;;;;;2.50;2.00;;;;;15.80;100.00;100747.69;4938794;28;45472;-83
2023/01/02 00:24:10;;;;;;;;;4.00;2.75;;;;;15.79;100.00;100757.06;4932760;28;45850;-81
2023/01/02 00:26:36;;;;;;;;;2.33;2.00;;;;;15.67;100.00;100743.25;4933604;28;45875;-82
2023/01/02 00:29:01;;;;;;;;;4.00;4.00;;;;;15.76;100.00;100767.75;4936471;28;45863;-83
2023/01/02 00:31:27;;;;;;;;;4.00;2.00;;;;;15.58;100.00;100730.03;4933850;28;47628;-82
2023/01/02 00:33:53;;;;;;;;;3.67;2.67;;;;;15.67;100.00;100768.13;4929888;28;45395;-82
2023/01/02 00:36:19;;;;;;;;;2.00;2.00;;;;;15.65;100.00;100778.59;4947767;28;45518;-82
2023/01/02 00:38:44;;;;;;;;;3.50;2.50;;;;;15.61;100.00;100769.09;4935068;28;45527;-81
2023/01/02 00:41:10;;;;;;;;;7.33;4.00;;;;;15.59;100.00;100778.72;4915366;28;46018;-81
2023/01/02 00:43:36;;;;;;;;;2.00;2.00;;;;;15.53;100.00;100781.34;4921276;28;45558;-80
2023/01/02 00:46:01;;;;;;;;;1.50;1.00;;;;;15.51;100.00;100778.00;4942482;28;45439;-80
2023/01/02 00:48:27;;;;;;;;;7.00;4.00;;;;;15.48;100.00;100783.19;4936042;28;45727;-79
2023/01/02 00:50:52;;;;;;;;;1.50;1.50;;;;;15.28;100.00;100755.88;4959483;28;45961;-80
2023/01/02 00:53:18;;;;;;;;;1.50;1.00;;;;;15.34;100.00;100761.31;4932020;28;45689;-82
2023/01/02 00:55:45;;;;;;;;;1.00;1.00;;;;;15.25;100.00;100764.66;4934366;28;45969;-80
2023/01/02 00:58:11;;;;;;;;;2.00;2.00;;;;;15.27;100.00;100770.78;4923465;28;45746;-80
2023/01/02 01:00:37;;;;;;;;;0.00;0.00;;;;;15.20;100.00;100753.50;4935577;28;45510;-81
2023/01/02 01:03:03;;;;;;;;;2.50;0.75;;;;;15.20;100.00;100757.09;4935493;28;46002;-81
2023/01/02 01:05:29;;;;;;;;;2.50;2.00;;;;;15.28;100.00;100784.34;4933635;28;45538;-81
2023/01/02 01:07:55;;;;;;;;;4.00;4.00;;;;;15.26;100.00;100786.53;4933791;28;45718;-82
2023/01/02 01:10:23;;;;;;;;;1.25;1.25;;;;;15.25;100.00;100795.06;4937690;28;45460;-82
2023/01/02 01:12:50;;;;;;;;;3.00;1.33;;;;;15.13;100.00;100783.97;4937578;28;45816;-81
2023/01/02 01:15:15;;;;;;;;;1.75;1.75;;;;;15.06;100.00;100778.59;4915518;28;45780;-82
2023/01/02 01:17:41;;;;;;;;;2.25;2.25;;;;;15.13;100.00;100787.56;4934378;28;45393;-81
2023/01/02 01:20:07;;;;;;;;;2.00;0.67;;;;;14.91;100.00;100750.56;4938594;28;45548;-80
2023/01/02 01:22:33;;;;;;;;;2.00;0.25;;;;;15.08;100.00;100794.91;4934867;28;45532;-80
2023/01/02 01:25:01;;;;;;;;;3.33;1.00;;;;;14.98;100.00;100785.31;4941728;28;45885;-80
2023/01/02 01:27:27;;;;;;;;;4.33;3.00;;;;;14.79;100.00;100759.69;4949298;28;45315;-81
2023/01/02 01:29:52;;;;;;;;;2.25;1.00;;;;;14.86;100.00;100789.09;4935032;28;46929;-80
2023/01/02 01:32:18;;;;;;;;;1.00;1.00;;;;;14.88;100.00;100790.56;4944095;28;45452;-79
2023/01/02 01:34:43;;;;;;;;;2.33;2.33;;;;;14.92;100.00;100805.56;4937882;28;45919;-81
2023/01/02 01:37:11;;;;;;;;;0.33;0.33;;;;;14.91;100.00;100812.19;4938905;28;45473;-79
2023/01/02 01:39:36;;;;;;;;;4.33;4.33;;;;;14.89;100.00;100811.56;4946486;28;48005;-80
2023/01/02 01:42:02;;;;;;;;;2.25;1.50;;;;;14.90;100.00;100812.41;4943948;28;45782;-80
2023/01/02 01:44:50;;;;;;;;;1.75;1.00;;;;;14.88;100.00;100804.38;4932367;28;45934;-79
2023/01/02 01:47:31;;;;;;;;;1.25;0.25;;;;;14.77;100.00;100788.59;4904665;28;45810;-79
2023/01/02 01:50:09;;;;;;;;;1.00;1.00;;;;;14.77;100.00;100799.66;4946296;28;47034;-80
2023/01/02 01:52:43;;;;;;;;;1.00;1.00;;;;;14.70;100.00;100791.47;4932475;28;45662;-81
2023/01/02 01:55:20;;;;;;;;;2.00;1.00;;;;;14.76;100.00;100809.84;4936099;28;45482;-81
2023/01/02 01:57:57;;;;;;;;;1.75;1.75;;;;;14.69;100.00;100813.78;4942363;28;45847;-81
2023/01/02 02:00:23;;;;;;;;;2.00;2.00;;;;;14.70;100.00;100816.31;4930700;28;46729;-81
2023/01/02 02:02:55;;;;;;;;;2.00;2.00;;;;;14.57;100.00;100811.78;4930736;28;45482;-80
2023/01/02 02:05:24;;;;;;;;;1.33;1.33;;;;;14.65;100.00;100835.47;4926581;28;45388;-81
2023/01/02 02:08:03;;;;;;;;;4.00;3.67;;;;;14.57;100.00;100827.50;4933470;28;45596;-81
2023/01/02 02:10:29;;;;;;;;;7.33;3.33;;;;;14.57;100.00;100839.38;4930762;28;46520;-80
2023/01/02 02:12:55;;;;;;;;;2.50;1.00;;;;;14.50;100.00;100832.28;4942228;28;45414;-81
2023/01/02 02:15:30;;;;;;;;;1.67;1.67;;;;;14.46;100.00;100827.22;4929849;28;45322;-80
2023/01/02 02:18:25;;;;;;;;;3.67;2.00;;;;;14.57;100.00;100846.84;4928452;28;45426;-81
2023/01/02 02:21:07;;;;;;;;;1.00;1.00;;;;;14.61;100.00;100859.09;4880286;28;45617;-79
2023/01/02 02:23:48;;;;;;;;;1.00;1.00;;;;;14.61;100.00;100873.75;4923683;28;46117;-81
2023/01/02 02:26:37;;;;;;;;;5.50;3.25;;;;;14.44;100.00;100839.56;4924628;28;45855;-81
2023/01/02 02:29:41;;;;;;;;;2.00;1.00;;;;;14.54;100.00;100872.97;4919363;28;45680;-81
2023/01/02 02:32:35;;;;;;;;;0.00;0.00;;;;;14.50;100.00;100871.75;4929489;28;45790;-80
2023/01/02 02:35:18;;;;;;;;;0.00;0.00;;;;;14.53;100.00;100875.97;4919028;28;45531;-82
2023/01/02 02:37:54;;;;;;;;;0.00;0.00;;;;;14.43;100.00;100865.47;4950344;28;45712;-81
2023/01/02 02:41:01;;;;;;;;;2.00;1.00;;;;;14.51;100.00;100881.72;4941487;28;45489;-80
2023/01/02 02:43:32;;;;;;;;;2.00;2.00;;;;;14.50;100.00;100880.03;4932189;28;47061;-80
2023/01/02 02:46:31;;;;;;;;;5.33;1.00;;;;;14.47;100.00;100874.97;4937491;28;45644;-80
2023/01/02 02:49:27;;;;;;;;;4.00;2.67;;;;;14.34;100.00;100856.69;4947592;28;45558;-80
2023/01/02 02:52:05;;;;;;;;;2.00;1.00;;;;;14.36;100.00;100859.22;4927602;28;47604;-80
2023/01/02 02:54:44;;;;;;;;;1.00;1.00;;;;;14.39;100.00;100878.06;4933830;28;46042;-81
2023/01/02 02:57:12;;;;;;;;;0.25;0.25;;;;;14.35;100.00;100863.88;4928444;28;45470;-80
2023/01/02 02:59:40;;;;;;;;;4.33;1.67;;;;;14.35;100.00;100874.06;4915978;28;45773;-80
2023/01/02 03:02:06;;;;;;;;;2.33;1.00;;;;;14.31;100.00;100862.63;4921782;28;47157;-79
2023/01/02 03:04:32;;;;;;;;;0.67;0.67;;;;;14.26;100.00;100877.13;4937555;28;45680;-80
2023/01/02 03:07:04;;;;;;;;;4.33;1.00;;;;;14.00;100.00;100830.56;4907918;28;46139;-80
2023/01/02 03:09:48;;;;;;;;;0.33;0.33;;;;;14.22;100.00;100875.91;4934992;28;45599;-80
2023/01/02 03:12:13;;;;;;;;;0.00;0.00;;;;;14.23;100.00;100885.03;4934795;28;45493;-81
2023/01/02 03:14:57;;;;;;;;;1.67;1.00;;;;;14.12;100.00;100875.59;4937542;28;45555;-80
2023/01/02 03:17:29;;;;;;;;;0.67;0.67;;;;;14.17;100.00;100886.78;4949443;28;45450;-80
2023/01/02 03:20:00;;;;;;;;;0.00;0.00;;;;;13.99;100.00;100857.28;4929713;28;45480;-81
2023/01/02 03:22:32;;;;;;;;;0.00;0.00;;;;;14.01;100.00;100868.09;4937696;28;45512;-90
2023/01/02 03:24:58;;;;;;;;;0.00;0.00;;;;;13.98;100.00;100863.84;4945369;28;45678;-89
2023/01/02 03:27:29;;;;;;;;;0.00;0.00;;;;;13.93;100.00;100852.69;4943580;28;45618;-88
2023/01/02 03:30:07;;;;;;;;;0.00;0.00;;;;;14.01;100.00;100862.56;4941505;28;45290;-88
2023/01/02 03:32:41;;;;;;;;;0.00;0.00;;;;;14.05;100.00;100881.19;4933805;28;45923;-88
2023/01/02 03:35:14;;;;;;;;;0.00;0.00;;;;;13.92;100.00;100860.13;4942351;28;46695;-88
2023/01/02 03:37:43;;;;;;;;;0.00;0.00;;;;;14.05;100.00;100880.34;4942873;28;45338;-88
2023/01/02 03:40:17;;;;;;;;;0.00;0.00;;;;;14.03;100.00;100891.59;4940769;28;45436;-87
2023/01/02 03:43:14;;;;;;;;;0.00;0.00;;;;;14.03;100.00;100896.28;4944719;28;45998;-88
2023/01/02 03:45:47;;;;;;;;;3.00;2.00;;;;;13.99;100.00;100897.81;4924361;28;46849;-90
2023/01/02 03:48:33;;;;;;;;;0.00;0.00;;;;;13.96;100.00;100915.66;4948580;28;45416;-82
2023/01/02 03:51:03;;;;;;;;;0.33;0.00;;;;;13.83;100.00;100888.19;4935082;28;45773;-88
2023/01/02 03:53:32;;;;;;;;;0.00;0.00;;;;;13.65;100.00;100887.09;4944009;28;45869;-86
2023/01/02 03:56:09;;;;;;;;;0.00;0.00;;;;;13.81;100.00;100916.00;4939243;28;45976;-86
2023/01/02 03:58:46;;;;;;;;;0.00;0.00;;;;;13.83;100.00;100913.88;4940733;28;45481;-85
2023/01/02 04:01:23;;;;;;;;;1.00;0.00;;;;;13.70;100.00;100902.97;4944659;28;45529;-88
2023/01/02 04:04:03;;;;;;;;;0.00;0.00;;;;;13.68;100.00;100903.19;4960329;28;46267;-88
2023/01/02 04:06:33;;;;;;;;;0.00;0.00;;;;;13.77;100.00;100918.38;4952600;28;45458;-80
2023/01/02 04:09:07;;;;;;;;;0.00;0.00;;;;;13.83;100.00;100935.94;4952081;28;45501;-87
2023/01/02 04:11:37;;;;;;;;;0.00;0.00;;;;;13.72;100.00;100925.63;4964832;28;44798;-89
2023/01/02 04:14:12;;;;;;;;;0.00;0.00;;;;;13.83;100.00;100938.69;4945544;28;45490;-88
2023/01/02 04:16:41;;;;;;;;;0.00;0.00;;;;;13.60;100.00;100907.06;4971933;28;47264;-89
2023/01/02 04:19:48;;;;;;;;;0.00;0.00;;;;;13.77;100.00;100939.56;4935007;28;45524;-87
2023/01/02 04:22:24;;;;;;;;;0.00;0.00;;;;;13.61;100.00;100918.94;4966448;28;45324;-89
2023/01/02 04:24:59;;;;;;;;;0.00;0.00;;;;;13.72;100.00;100939.41;4933870;28;45742;-88
2023/01/02 04:27:33;;;;;;;;;0.00;0.00;;;;;13.54;100.00;100913.47;4949825;28;46289;-90
2023/01/02 04:29:59;;;;;;;;;0.00;0.00;;;;;13.68;100.00;100940.91;4955129;28;45436;-88
2023/01/02 04:32:34;;;;;;;;;0.00;0.00;;;;;13.64;100.00;100939.69;4953157;28;45210;-87
2023/01/02 04:35:04;;;;;;;;;0.00;0.00;;;;;13.53;100.00;100936.59;4948866;28;45459;-88
2023/01/02 04:37:42;;;;;;;;;0.00;0.00;;;;;13.50;100.00;100942.56;4949455;28;46512;-87
2023/01/02 04:40:29;;;;;;;;;0.00;0.00;;;;;13.55;100.00;100959.25;4956772;28;44783;-88
2023/01/02 04:42:55;;;;;;;;;0.00;0.00;;;;;13.41;100.00;100935.59;4957509;28;45387;-88
2023/01/02 04:45:20;;;;;;;;;0.00;0.00;;;;;13.57;100.00;100968.13;4963270;28;45438;-89
2023/01/02 04:47:49;;;;;;;;;0.00;0.00;;;;;13.57;100.00;100975.56;4967515;28;45381;-89
2023/01/02 04:50:15;;;;;;;;;0.00;0.00;;;;;13.45;100.00;100961.66;4949732;28;45290;-88
2023/01/02 04:52:41;;;;;;;;;0.00;0.00;;;;;13.53;100.00;100983.44;4957020;28;45401;-89
2023/01/02 04:55:09;;;;;;;;;0.00;0.00;;;;;13.50;100.00;100983.91;4943606;28;45858;-89
2023/01/02 04:57:36;;;;;;;;;1.00;0.00;;;;;13.49;100.00;100981.31;4940974;28;48210;-84
2023/01/02 05:00:04;;;;;;;;;0.00;0.00;;;;;13.41;100.00;100976.94;4938542;28;45739;-89
2023/01/02 05:02:37;;;;;;;;;0.00;0.00;;;;;13.47;100.00;100995.31;4945748;28;45454;-88
2023/01/02 05:05:04;;;;;;;;;0.00;0.00;;;;;13.45;100.00;100993.88;4924277;28;45950;-88
2023/01/02 05:07:32;;;;;;;;;0.00;0.00;;;;;13.48;100.00;101004.47;4933344;28;45823;-87
2023/01/02 05:09:58;;;;;;;;;0.00;0.00;;;;;13.43;100.00;101005.13;4938067;28;45852;-88
2023/01/02 05:12:24;;;;;;;;;0.00;0.00;;;;;13.45;100.00;101013.16;4941627;28;46004;-88
2023/01/02 05:14:50;;;;;;;;;1.00;0.00;;;;;13.39;100.00;101012.13;4944123;28;45789;-89
2023/01/02 05:17:15;;;;;;;;;0.00;0.00;;;;;13.45;100.00;101025.03;4949296;28;46258;-89
2023/01/02 05:19:44;;;;;;;;;0.00;0.00;;;;;13.45;100.00;101044.31;4923467;28;45494;-90
2023/01/02 05:24:55;;;;;;;;;0.67;0.00;;;;;13.20;100.00;101009.25;4951824;28;45432;-88
2023/01/02 05:27:21;;;;;;;;;0.67;0.00;;;;;13.37;100.00;101044.59;4960990;28;45443;-89
2023/01/02 05:29:47;;;;;;;;;0.00;0.00;;;;;13.36;100.00;101046.47;4946259;28;45394;-90
2023/01/02 05:32:13;;;;;;;;;0.00;0.00;;;;;13.34;100.00;101045.84;4943943;28;45696;-90
2023/01/02 05:34:39;;;;;;;;;0.00;0.00;;;;;13.18;100.00;101022.38;4926378;28;45622;-89
2023/01/02 05:37:05;;;;;;;;;0.00;0.00;;;;;13.40;100.00;101057.91;4955365;28;45397;-90
2023/01/02 05:39:35;;;;;;;;;0.00;0.00;;;;;13.38;100.00;101069.16;4937204;28;45566;-90
2023/01/02 05:42:01;;;;;;;;;1.67;0.00;;;;;13.03;100.00;101021.81;4958559;28;45462;-89
2023/01/02 05:44:27;;;;;;;;;0.00;0.00;;;;;13.39;100.00;101075.50;4958138;28;45651;-89
2023/01/02 05:46:53;;;;;;;;;0.00;0.00;;;;;13.40;100.00;101072.53;4945645;28;45562;-88
2023/01/02 05:49:19;;;;;;;;;0.67;0.67;;;;;13.39;100.00;101079.09;4917932;28;45428;-83
2023/01/02 05:51:44;;;;;;;;;0.33;0.00;;;;;13.29;100.00;101066.81;4938481;28;45542;-83
2023/01/02 05:54:11;;;;;;;;;0.00;0.00;;;;;13.16;100.00;101043.81;4945258;28;45447;-85
2023/01/02 05:56:36;;;;;;;;;0.00;0.00;;;;;13.21;100.00;101057.75;4945943;28;45513;-86
2023/01/02 05:59:06;;;;;;;;;0.00;0.00;;;;;13.18;100.00;101052.69;4944056;28;45265;-83
2023/01/02 06:01:32;;;;;;;;;0.00;0.00;;;;;13.14;100.00;101056.91;4943728;28;45432;-84
2023/01/02 06:03:59;;;;;;;;;0.00;0.00;;;;;13.28;100.00;101074.25;4956027;28;45248;-82
2023/01/02 06:06:48;;;;;;;;;0.00;0.00;;;;;13.14;100.00;101045.06;4950734;28;46537;-83
2023/01/02 06:09:15;;;;;;;;;0.00;0.00;;;;;13.36;100.00;101092.47;4937147;28;45542;-84
2023/01/02 06:11:41;;;;;;;;;0.33;0.00;;;;;13.21;100.00;101067.94;4939627;28;45548;-83
2023/01/02 06:14:09;;;;;;;;;1.33;0.00;;;;;13.19;100.00;101062.63;4941537;28;45369;-84
2023/01/02 06:16:35;;;;;;;;;0.00;0.00;;;;;13.40;100.00;101099.25;4925697;28;47633;-78
2023/01/02 06:19:02;;;;;;;;;0.00;0.00;;;;;13.45;100.00;101096.66;4931540;28;46934;-84
2023/01/02 06:21:42;;;;;;;;;0.00;0.00;;;;;13.36;100.00;101090.56;4941552;28;45534;-85
2023/01/02 06:24:09;;;;;;;;;0.00;0.00;;;;;13.54;100.00;101100.84;4946365;28;45508;-87
2023/01/02 06:26:46;;;;;;;;;0.33;0.33;;;;;13.58;100.00;101101.28;4950847;28;46849;-88
2023/01/02 06:29:37;;;;;;;;;0.00;0.00;;;;;13.26;100.00;101062.59;4943196;28;44825;-85
2023/01/02 06:32:03;;;;;;;;;0.00;0.00;;;;;13.60;100.00;101104.63;4950661;28;45331;-85
2023/01/02 06:34:29;;;;;;;;;1.00;0.00;;;;;13.55;100.00;101109.97;4949776;28;44748;-86
2023/01/02 06:36:55;;;;;;;;;0.00;0.00;;;;;13.53;100.00;101115.72;4951824;28;45444;-86
2023/01/02 06:39:21;;;;;;;;;0.00;0.00;;;;;13.58;100.00;101124.16;4930357;28;45785;-86
2023/01/02 06:41:47;;;;;;;;;0.00;0.00;;;;;13.56;100.00;101125.44;4925791;28;45597;-85
2023/01/02 06:44:12;;;;;;;;;0.00;0.00;;;;;13.52;100.00;101115.94;4927135;28;46316;-84
2023/01/02 06:46:39;;;;;;;;;0.67;0.00;;;;;13.65;100.00;101135.13;4916042;28;45559;-86
2023/01/02 06:49:11;;;;;;;;;0.00;0.00;;;;;13.53;100.00;101112.09;4942677;28;45438;-85
2023/01/02 06:51:40;;;;;;;;;0.00;0.00;;;;;13.47;100.00;101124.81;4941884;28;45402;-86
2023/01/02 06:54:05;;;;;;;;;0.00;0.00;;;;;13.59;100.00;101125.00;4944415;28;46036;-85
2023/01/02 06:56:31;;;;;;;;;0.67;0.00;;;;;13.66;100.00;101141.50;4950217;28;45436;-83
2023/01/02 06:58:58;;;;;;;;;1.00;0.00;;;;;13.52;100.00;101119.53;4939568;28;45680;-82
2023/01/02 07:01:23;;;;;;;;;0.00;0.00;;;;;13.47;100.00;101121.25;4936105;28;45463;-82
2023/01/02 07:03:49;;;;;;;;;0.00;0.00;;;;;13.56;100.00;101141.97;4915338;28;47090;-83
2023/01/02 07:06:18;;;;;;;;;0.00;0.00;;;;;13.54;100.00;101150.44;4921717;28;46591;-82
2023/01/02 07:08:49;;;;;;;;;0.33;0.00;;;;;13.33;100.00;101115.75;4921558;28;45427;-80
2023/01/02 07:11:39;;;;;;;;;0.67;0.00;;;;;13.34;100.00;101133.19;4916346;28;45523;-83
2023/01/02 07:14:05;;;;;;;;;0.00;0.00;;;;;13.47;100.00;101154.31;4927263;28;45403;-82
2023/01/02 07:17:14;;;;;;;;;0.67;0.00;;;;;13.10;100.00;101099.75;4927437;28;45208;-83
2023/01/02 07:19:40;;;;;;;;;0.00;0.00;;;;;13.33;100.00;101140.53;4934282;28;45398;-81
2023/01/02 07:22:06;;;;;;;;;2.00;0.00;;;;;13.34;100.00;101141.44;4932590;28;45526;-79
2023/01/02 07:24:32;;;;;;;;;0.00;0.00;;;;;13.29;100.00;101142.03;4930944;28;45973;-84
2023/01/02 07:27:03;;;;;;;;;1.00;1.00;;;;;13.39;100.00;101152.63;4931175;28;45573;-82
2023/01/02 07:29:49;;;;;;;;;5.67;4.67;;;;;13.40;100.00;101148.84;4929101;28;44772;-82
2023/01/02 07:32:56;;;;;;;;;2.67;0.67;;;;;13.36;100.00;101153.91;4919712;28;45362;-81
2023/01/02 07:35:24;;;;;;;;;1.33;0.33;;;;;13.27;100.00;101137.81;4931196;28;45624;-80
2023/01/02 07:37:50;;;;;;;;;1.67;0.00;;;;;13.17;100.00;101141.03;4919098;28;45807;-80
2023/01/02 07:40:16;;;;;;;;;0.00;0.00;;;;;13.16;100.00;101142.94;4936679;28;45561;-85
2023/01/02 07:42:42;;;;;;;;;0.00;0.00;;;;;13.14;100.00;101147.78;4952278;28;45446;-83
2023/01/02 07:45:08;;;;;;;;;2.00;1.33;;;;;13.18;100.00;101173.84;4929139;28;45004;-83
2023/01/02 07:47:33;;;;;;;;;0.00;0.00;;;;;13.16;100.00;101181.50;4927622;28;45677;-78
2023/01/02 07:50:03;;;;;;;;;0.33;0.33;;;;;13.14;100.00;101194.63;4926088;28;45407;-84
2023/01/02 07:52:29;;;;;;;;;0.00;0.00;;;;;13.01;100.00;101189.16;4929104;28;45898;-81
2023/01/02 07:54:54;;;;;;;;;0.00;0.00;;;;;12.95;100.00;101182.59;4926537;28;46226;-82
2023/01/02 07:57:20;;;;;;;;;3.33;0.67;;;;;13.01;100.00;101214.78;4931266;28;45498;-80
2023/01/02 07:59:46;;;;;;;;;10.33;7.67;;;;;12.87;100.00;101193.81;4927289;28;46567;-82
2023/01/02 08:02:11;;;;;;;;;0.00;0.00;;;;;12.94;100.00;101202.09;4922699;28;45612;-80
2023/01/02 08:04:38;;;;;;;;;11.67;8.33;;;;;13.01;100.00;101227.72;4935092;28;45696;-85
2023/01/02 08:07:08;;;;;;;;;8.67;7.67;;;;;13.02;100.00;101230.25;4940369;28;45622;-82
2023/01/02 08:09:34;;;;;;;;;11.33;7.67;;;;;13.07;100.00;101235.94;4948448;28;45792;-85
2023/01/02 08:12:07;;;;;;;;;1.67;0.67;;;;;12.91;100.00;101211.59;4946385;28;45533;-87
2023/01/02 08:14:32;;;;;;;;;1.33;0.67;;;;;12.96;100.00;101224.72;4950057;28;45088;-84
2023/01/02 08:17:00;;;;;;;;;3.67;3.67;;;;;13.04;100.00;101233.63;4964140;28;45482;-86
2023/01/02 08:19:26;;;;;;;;;5.00;3.33;;;;;12.93;100.00;101222.41;4962047;28;45854;-85
2023/01/02 08:21:52;;;;;;;;;24.67;23.67;;;;;13.12;100.00;101257.34;4928705;28;45382;-84
2023/01/02 08:24:19;;;;;;;;;14.00;9.67;;;;;13.13;100.00;101261.78;4946699;28;45434;-85
2023/01/02 08:26:46;;;;;;;;;0.00;0.00;;;;;13.10;100.00;101259.47;4946767;28;46803;-86
2023/01/02 08:29:15;;;;;;;;;2.33;1.33;;;;;13.13;100.00;101278.31;4949038;28;44804;-85
2023/01/02 08:31:41;;;;;;;;;6.00;4.00;;;;;13.07;100.00;101271.75;4940779;28;45779;-83
2023/01/02 08:34:34;;;;;;;;;0.00;0.00;;;;;13.19;100.00;101277.47;4936482;28;45353;-86
2023/01/02 08:37:07;;;;;;;;;0.00;0.00;;;;;13.15;100.00;101262.41;4935515;28;46287;-85
2023/01/02 08:39:55;;;;;;;;;1.67;0.33;;;;;13.34;100.00;101282.78;4935555;28;45633;-85
2023/01/02 08:42:25;;;;;;;;;7.00;6.33;;;;;13.35;100.00;101289.13;4919339;28;45570;-88
2023/01/02 08:44:57;;;;;;;;;7.00;7.00;;;;;13.21;100.00;101288.25;4938309;28;45513;-87
2023/01/02 08:48:05;;;;;;;;;2.33;1.00;;;;;13.31;100.00;101312.59;4955004;28;45720;-86
2023/01/02 08:50:43;;;;;;;;;0.00;0.00;;;;;13.28;100.00;101310.28;4915576;28;45766;-88
2023/01/02 08:53:39;;;;;;;;;1.33;1.00;;;;;13.28;100.00;101324.06;4936303;28;45561;-88
2023/01/02 08:56:47;;;;;;;;;3.33;3.33;;;;;13.24;100.00;101338.25;4928907;28;45749;-83
2023/01/02 08:59:33;;;;;;;;;9.67;9.67;;;;;13.01;100.00;101318.56;4937714;28;45763;-84
2023/01/02 09:02:13;;;;;;;;;10.67;10.33;;;;;13.22;100.00;101367.94;4951235;28;45470;-88
2023/01/02 09:05:31;;;;;;;;;;;;;;;;;;;;;
2023/01/02 09:08:55;;;;;;;;;;;;;;;;;;;;;
2023/01/02 09:11:42;;;;;;;;;9.33;8.00;;;;;13.19;100.00;101387.63;4937566;28;75414;-91
2023/01/02 09:14:52;;;;;;;;;22.67;21.00;;;;;13.14;100.00;101384.63;4940522;28;45295;-87
2023/01/02 09:17:42;;;;;;;;;7.33;7.33;;;;;12.79;100.00;101334.41;4936832;28;45820;-85
2023/01/02 09:20:12;;;;;;;;;11.00;8.00;;;;;13.02;100.00;101380.81;4933022;28;45840;-84
2023/01/02 09:22:43;;;;;;;;;2.33;1.00;;;;;12.77;100.00;101334.63;4936671;28;45543;-90
2023/01/02 09:25:10;;;;;;;;;27.67;20.00;;;;;12.98;100.00;101372.16;4923323;28;45421;-88
2023/01/02 09:27:39;;;;;;;;;2.33;2.33;;;;;13.02;100.00;101375.31;4944328;28;45394;-88
2023/01/02 09:30:15;;;;;;;;;3.33;3.33;;;;;13.05;100.00;101369.38;4945030;28;45508;-88
2023/01/02 09:32:49;;;;;;;;;16.00;14.00;;;;;13.10;100.00;101399.91;4963136;28;47259;-89
2023/01/02 09:35:17;;;;;;;;;3.67;2.67;;;;;12.96;100.00;101370.66;4927382;28;45937;-88
2023/01/02 09:37:47;;;;;;;;;3.00;3.00;;;;;13.15;100.00;101407.53;4945844;28;45034;-88
2023/01/02 09:40:18;;;;;;;;;7.33;4.33;;;;;12.84;100.00;101367.66;4925483;28;45833;-90
2023/01/02 09:42:48;;;;;;;;;6.33;5.00;;;;;13.06;100.00;101412.41;4947578;28;46452;-91
2023/01/02 09:46:09;;;;;;;;;7.67;5.33;;;;;13.17;100.00;101414.53;4946546;28;45434;-90
2023/01/02 09:48:21;;;;;;;;;3.00;1.33;;;;;13.19;100.00;101423.44;4937693;28;45388;-90
2023/01/02 09:51:19;;;;;;;;;;;;;;;;;;;;;
2023/01/02 09:54:16;;;;;;;;;7.00;7.00;;;;;13.20;100.00;101422.38;4948635;28;75528;-88
2023/01/02 09:56:45;;;;;;;;;3.00;2.67;;;;;13.03;100.00;101407.31;4908692;28;45869;-86
2023/01/02 09:59:37;;;;;;;;;1.00;1.00;;;;;13.09;100.00;101439.50;4920052;28;45522;-85
2023/01/02 10:02:37;;;;;;;;;0.67;0.67;;;;;13.13;100.00;101449.06;4929612;28;45869;-85
2023/01/02 10:05:28;;;;;;;;;2.67;1.33;;;;;13.15;100.00;101465.38;4932327;28;46227;-84
2023/01/02 10:08:40;;;;;;;;;1.33;1.33;;;;;13.15;100.00;101471.72;4937497;28;45564;-83
2023/01/02 10:11:32;;;;;;;;;5.67;3.67;;;;;13.22;100.00;101478.09;4936194;28;45578;-85
2023/01/02 10:14:13;;;;;;;;;1.67;1.67;;;;;13.01;100.00;101431.47;4938175;28;45625;-86
2023/01/02 10:16:45;;;;;;;;;0.00;0.00;;;;;12.95;100.00;101421.25;4925428;28;47081;-85
2023/01/02 10:19:22;;;;;;;;;1.67;0.67;;;;;13.24;100.00;101464.97;4923253;28;45809;-84
2023/01/02 10:25:14;;;;;;;;;3.67;3.00;;;;;13.20;100.00;101430.66;4917958;28;45957;-84
2023/01/02 10:28:34;;;;;;;;;2.33;2.33;;;;;13.50;100.00;101460.59;4932261;28;47208;-86
2023/01/02 10:31:34;;;;;;;;;0.00;0.00;;;;;13.42;100.00;101424.97;4933794;28;45890;-83
2023/01/02 10:34:22;;;;;;;;;1.33;1.33;;;;;13.50;100.00;101423.91;4930614;28;45412;-84
2023/01/02 10:40:08;;;;;;;;;0.67;0.67;;;;;13.68;100.00;101459.09;4938245;28;45382;-82
2023/01/02 10:42:37;;;;;;;;;8.33;8.33;;;;;13.68;100.00;101475.63;4923599;28;45548;-84
2023/01/02 10:45:12;;;;;;;;;2.00;2.00;;;;;13.45;100.00;101449.34;4943813;28;45443;-85
2023/01/02 10:47:45;;;;;;;;;8.00;8.00;;;;;13.50;100.00;101452.34;4943141;28;45296;-85
2023/01/02 10:50:32;;;;;;;;;3.67;3.67;;;;;13.70;100.00;101473.53;4956594;28;46955;-84
2023/01/02 10:53:07;;;;;;;;;10.00;4.33;;;;;13.78;100.00;101485.19;4940761;28;45379;-83
2023/01/02 10:56:02;;;;;;;;;3.33;1.67;;;;;13.53;100.00;101449.16;4927210;28;45367;-86
2023/01/02 10:58:44;;;;;;;;;1.00;1.00;;;;;13.91;100.00;101495.38;4922364;28;45517;-84
2023/01/02 11:01:23;;;;;;;;;0.67;0.67;;;;;13.90;100.00;101485.38;4938881;28;45470;-84
2023/01/02 11:04:11;;;;;;;;;2.00;1.67;;;;;14.05;100.00;101509.16;4938288;28;45566;-85
2023/01/02 11:06:59;;;;;;;;;3.67;3.00;;;;;13.94;100.00;101494.94;4938211;28;45449;-85
2023/01/02 11:09:48;;;;;;;;;;;;;;;;;;;;;
2023/01/02 11:12:33;;;;;;;;;2.33;2.33;;;;;14.00;100.00;101486.88;4936133;28;74793;-84
2023/01/02 11:15:13;;;;;;;;;1.33;1.33;;;;;14.15;100.00;101523.34;4931563;28;45492;-83
2023/01/02 11:17:45;;;;;;;;;6.67;4.00;;;;;14.16;100.00;101515.91;4954536;28;45977;-84
2023/01/02 11:21:18;;;;;;;;;3.67;3.67;;;;;14.03;100.00;101497.50;4944421;28;45998;-83
2023/01/02 11:24:04;;;;;;;;;0.33;0.33;;;;;14.28;100.00;101528.00;4952014;28;45435;-84
2023/01/02 11:26:42;;;;;;;;;3.67;3.00;;;;;14.28;100.00;101498.50;4959762;28;45473;-89
2023/01/02 11:29:41;;;;;;;;;3.33;3.33;;;;;14.68;100.00;101518.81;4953247;28;45474;-84
2023/01/02 11:32:20;;;;;;;;;8.67;6.67;;;;;15.00;100.00;101504.03;4947604;28;45773;-87
2023/01/02 11:34:58;;;;;;;;;3.67;1.33;;;;;15.10;100.00;101516.53;4935705;28;47610;-86
2023/01/02 11:37:25;;;;;;;;;2.00;2.00;;;;;15.18;100.00;101519.03;4943420;28;45618;-87
2023/01/02 11:40:49;;;;;;;;;7.33;5.00;;;;;15.21;100.00;101529.66;4931633;28;45543;-88
2023/01/02 11:46:13;;;;;;;;;0.00;0.00;;;;;15.19;100.00;101545.59;4946300;28;45169;-88
2023/01/02 11:48:42;;;;;;;;;2.00;1.00;;;;;15.00;100.00;101551.00;4940900;28;45601;-85
2023/01/02 11:51:24;;;;;;;;;1.67;1.33;;;;;14.93;100.00;101555.69;4949827;28;45872;-86
2023/01/02 11:54:21;;;;;;;;;1.00;1.00;;;;;14.54;100.00;101505.03;4950799;28;45087;-88
2023/01/02 11:56:52;;;;;;;;;3.00;3.00;;;;;14.77;100.00;101553.41;4966890;28;45796;-87
2023/01/02 11:59:35;;;;;;;;;3.33;3.33;;;;;14.83;100.00;101578.25;4945646;28;45391;-89
2023/01/02 12:02:13;;;;;;;;;2.67;2.67;;;;;14.92;100.00;101565.03;4948166;28;45217;-86
2023/01/02 12:04:46;;;;;;;;;6.67;6.33;;;;;14.88;100.00;101547.22;4950079;28;46491;-87
2023/01/02 12:07:22;;;;;;;;;2.00;2.00;;;;;15.03;100.00;101570.94;4941910;28;47313;-89
2023/01/02 12:10:21;;;;;;;;;1.50;1.50;;;;;15.14;100.00;101575.81;4950009;28;45183;-88